Strona główna
METAR-TAF:

METAR-TAF

Lotnisko :

Port lotniczy Dar es Salaam

Dar es Salaam, Tanzania

Szerokość geograficzna: 06-52S, Długość geograficzna: 039-12E, wysokość: 55 m

Aktualna obserwacja pogody

Raport powstał 1 godzina i 52 minut temu, godzina 10:00 UTC
Wiatr 12 kt od północno-północny wschód
Temperatura 34°C
Wilgotność 56%
Ciśnienie 1011 hPa
Widzialność 10 km lub więcej
Rozproszone chmury na wysokości 3200 ft
Mało chmury na wysokości 3400 ft, Cumulonimbus.

METAR: HTDA 191000Z 02012KT 9999 SCT032 FEW034CB 34/24 Q1011 NOSIG

czas: 14:52 (11:52 UTC)

Prognoza

Raport powstał 52 minut temu, godzina 11:00 UTC
Prognoza ważna od 19 godzina 12 UTC do 20 godzina 18 UTC
Wiatr 10 kt od północny wschód
Widzialność 10 km lub więcej
Rozproszone chmury na wysokości 3200 ft
Stopniowe zmiany
od 19 godzina 23 UTC do 20 godzina 02 UTC
Wiatr kt od północ

TAF: HTDA 191100Z 1912/2018 04010KT 9999 SCT032 BECMG 1923/2002 00000KT

Obserwacja i prognoza pogody dla ponad 4000 lotnisk (raport METAR i TAF).

Dostępne stacje oznaczono żółtymi i czerwonymi punktami na mapie.

Najedź kursorem aby zobaczyć nazwę stacji.

Kliknij aby zobaczyć obserwacje i prognozy pogody.

Aby zmienić mapę: kliknij na zielony przycisk z czarnym krzyżykiem, aby powiększyć; na zielony przycisk z myślnikiem, aby pomniejszyć; na zielone strzałki, aby przejść do map sąsiednich.


METAR-TAF: